Time;durP1;ratioP1;P1;durP2;ratioP2;P2;SDS_P1;SDS_P2;PMS_P1;PMS_P2;Temp;Humidity;BMP_temperature;BMP_pressure;BME280_temperature;BME280_humidity;BME280_pressure;Samples;Min_cycle;Max_cycle;Signal;HPM_P1;HPM_P2
2021/07/05 00:02:21;;;;;;;5.35;4.75;;;;;;;22.81;100.00;98084.84;1609007;87;20986;-66
2021/07/05 00:04:49;;;;;;;6.90;5.00;;;;;;;22.77;100.00;98088.20;1650214;85;21066;-66
2021/07/05 00:07:20;;;;;;;5.90;5.22;;;;;;;22.74;100.00;98083.53;1639133;85;20970;-66
2021/07/05 00:09:47;;;;;;;6.97;5.28;;;;;;;22.70;100.00;98090.07;1623652;87;21116;-66
2021/07/05 00:12:17;;;;;;;5.53;4.95;;;;;;;22.67;100.00;98103.25;1609558;87;21501;-66
2021/07/05 00:14:45;;;;;;;6.70;5.70;;;;;;;22.68;100.00;98104.11;1597863;88;20935;-66
2021/07/05 00:17:14;;;;;;;6.05;5.45;;;;;;;22.67;100.00;98100.56;1608615;87;20963;-66
2021/07/05 00:19:41;;;;;;;7.58;5.47;;;;;;;22.65;100.00;98101.16;1598033;88;20938;-66
2021/07/05 00:22:11;;;;;;;7.58;5.45;;;;;;;22.59;100.00;98102.45;1605616;87;21498;-66
2021/07/05 00:24:41;;;;;;;6.03;5.25;;;;;;;22.53;100.00;98109.61;1597946;88;21435;-66
2021/07/05 00:27:10;;;;;;;8.50;5.17;;;;;;;22.48;100.00;98110.42;1599938;87;21506;-66
2021/07/05 00:29:40;;;;;;;8.18;5.70;;;;;;;22.46;100.00;98109.67;1597857;88;20919;-66
2021/07/05 00:32:09;;;;;;;8.38;5.83;;;;;;;22.46;100.00;98114.19;1599726;88;21592;-66
2021/07/05 00:34:38;;;;;;;10.13;5.70;;;;;;;22.45;100.00;98106.61;1600759;88;21486;-66
2021/07/05 00:37:06;;;;;;;6.60;5.03;;;;;;;22.44;100.00;98102.20;1623238;86;20960;-66
2021/07/05 00:39:35;;;;;;;6.97;5.37;;;;;;;22.42;100.00;98098.77;1624004;86;21038;-66
2021/07/05 00:42:02;;;;;;;7.40;5.95;;;;;;;22.42;100.00;98101.94;1653934;85;20906;-65
2021/07/05 00:44:30;;;;;;;8.20;6.15;;;;;;;22.40;100.00;98105.22;1633656;86;21477;-65
2021/07/05 00:46:58;;;;;;;7.80;6.00;;;;;;;22.37;100.00;98101.41;1635886;86;21425;-65
2021/07/05 00:49:26;;;;;;;7.45;6.12;;;;;;;22.32;100.00;98101.73;1611366;87;20921;-65
2021/07/05 00:51:54;;;;;;;7.40;5.40;;;;;;;22.30;100.00;98103.66;1609856;87;20926;-66
2021/07/05 00:54:23;;;;;;;7.83;5.20;;;;;;;22.31;100.00;98104.04;1610217;87;21010;-67
2021/07/05 00:56:51;;;;;;;7.70;5.92;;;;;;;22.27;100.00;98098.02;1609628;87;21157;-66
2021/07/05 00:59:18;;;;;;;11.18;6.25;;;;;;;22.26;100.00;98091.41;1611803;87;21054;-64
2021/07/05 01:01:47;;;;;;;10.23;6.05;;;;;;;22.24;100.00;98093.34;1610321;87;20994;-64
2021/07/05 01:04:16;;;;;;;5.60;5.10;;;;;;;22.22;100.00;98090.73;1610294;87;21489;-64
2021/07/05 01:06:44;;;;;;;11.83;5.78;;;;;;;22.20;100.00;98083.27;1617611;86;21034;-65
2021/07/05 01:09:12;;;;;;;10.15;6.25;;;;;;;22.19;100.00;98088.27;1611828;87;20902;-65
2021/07/05 01:11:41;;;;;;;6.87;6.08;;;;;;;22.18;100.00;98089.23;1635639;86;21101;-66
2021/07/05 01:14:09;;;;;;;8.88;5.80;;;;;;;22.16;100.00;98092.99;1618377;86;20930;-67
2021/07/05 01:16:40;;;;;;;8.55;5.05;;;;;;;22.13;100.00;98094.55;1609811;87;20966;-67
2021/07/05 01:19:08;;;;;;;6.15;5.50;;;;;;;22.12;100.00;98095.03;1634084;86;20962;-66
2021/07/05 01:21:35;;;;;;;7.45;5.67;;;;;;;22.11;100.00;98089.28;1616744;86;20934;-65
2021/07/05 01:24:05;;;;;;;6.22;5.60;;;;;;;22.08;100.00;98080.10;1635979;86;21099;-65
2021/07/05 01:26:33;;;;;;;9.33;5.55;;;;;;;22.02;100.00;98064.38;1610655;86;20970;-66
2021/07/05 01:29:01;;;;;;;7.40;5.50;;;;;;;21.99;100.00;98065.45;1609893;87;20993;-65
2021/07/05 01:31:29;;;;;;;9.93;5.28;;;;;;;21.98;100.00;98064.22;1616649;86;21472;-66
2021/07/05 01:33:57;;;;;;;7.37;5.40;;;;;;;21.93;100.00;98068.56;1633657;86;21009;-65
2021/07/05 01:36:25;;;;;;;6.67;5.53;;;;;;;21.89;100.00;98065.72;1635858;86;21091;-65
2021/07/05 01:38:53;;;;;;;7.30;5.22;;;;;;;21.86;100.00;98073.13;1611302;86;20902;-65
2021/07/05 01:41:22;;;;;;;8.30;5.78;;;;;;;21.85;100.00;98074.09;1611332;87;20994;-66
2021/07/05 01:43:50;;;;;;;6.45;5.35;;;;;;;21.85;100.00;98079.46;1609676;87;21513;-65
2021/07/05 01:46:22;;;;;;;7.58;5.20;;;;;;;21.86;100.00;98080.70;1625599;86;21504;-66
2021/07/05 01:48:51;;;;;;;7.20;5.83;;;;;;;21.84;100.00;98081.29;1610016;87;21765;-67
2021/07/05 01:51:19;;;;;;;8.73;5.70;;;;;;;21.84;100.00;98080.42;1611434;87;20910;-67
2021/07/05 01:53:47;;;;;;;7.22;5.25;;;;;;;21.84;100.00;98083.97;1609904;87;21023;-67
2021/07/05 01:56:16;;;;;;;7.10;5.42;;;;;;;21.84;100.00;98088.00;1621816;86;21019;-67
2021/07/05 01:58:45;;;;;;;7.05;5.17;;;;;;;21.84;100.00;98100.08;1635393;86;21449;-66
2021/07/05 02:01:13;;;;;;;9.65;5.95;;;;;;;21.84;100.00;98097.88;1633682;86;21179;-67
2021/07/05 02:03:41;;;;;;;7.00;5.53;;;;;;;21.80;100.00;98105.28;1634996;86;20954;-66
2021/07/05 02:06:09;;;;;;;5.58;4.90;;;;;;;21.79;100.00;98102.70;1635276;86;21038;-66
2021/07/05 02:08:39;;;;;;;7.47;5.42;;;;;;;21.81;100.00;98108.34;1635721;86;20882;-64
2021/07/05 02:11:07;;;;;;;5.72;5.12;;;;;;;21.83;100.00;98103.73;1635558;87;20974;-65
2021/07/05 02:13:36;;;;;;;8.90;5.28;;;;;;;21.83;100.00;98094.33;1633912;86;21961;-63
2021/07/05 02:16:05;;;;;;;7.03;5.50;;;;;;;21.84;100.00;98093.85;1635203;86;20914;-64
2021/07/05 02:18:36;;;;;;;7.58;5.35;;;;;;;21.83;100.00;98083.59;1635617;86;21502;-63
2021/07/05 02:21:06;;;;;;;10.68;5.50;;;;;;;21.84;100.00;98085.31;1629910;86;21046;-66
2021/07/05 02:23:35;;;;;;;6.85;5.40;;;;;;;21.85;100.00;98081.66;1626110;86;20986;-63
2021/07/05 02:26:05;;;;;;;7.47;5.83;;;;;;;21.87;100.00;98081.56;1621293;86;21434;-60
2021/07/05 02:28:36;;;;;;;5.92;5.20;;;;;;;21.86;100.00;98073.13;1636027;86;20902;-60
2021/07/05 02:31:05;;;;;;;7.87;5.40;;;;;;;21.85;100.00;98068.72;1635036;86;20970;-61
2021/07/05 02:33:34;;;;;;;6.62;5.85;;;;;;;21.86;100.00;98063.73;1636010;86;20982;-62
2021/07/05 02:36:07;;;;;;;11.83;5.72;;;;;;;21.87;100.00;98068.13;1609987;86;21022;-62
2021/07/05 02:38:37;;;;;;;10.45;5.70;;;;;;;21.87;100.00;98074.36;1635786;86;21108;-62
2021/07/05 02:41:05;;;;;;;10.60;5.03;;;;;;;21.88;100.00;98075.22;1624866;87;20955;-62
2021/07/05 02:43:33;;;;;;;6.58;5.35;;;;;;;21.88;100.00;98073.88;1609972;87;21519;-63
2021/07/05 02:46:01;;;;;;;6.70;5.08;;;;;;;21.88;100.00;98069.38;1609637;87;21520;-64
2021/07/05 02:48:31;;;;;;;7.45;5.90;;;;;;;21.91;100.00;98071.84;1609867;87;21480;-64
2021/07/05 02:51:05;;;;;;;9.98;5.67;;;;;;;21.92;100.00;98074.91;1611388;87;21945;-63
2021/07/05 02:53:33;;;;;;;11.30;5.20;;;;;;;21.93;100.00;98079.80;1609879;87;21520;-64
2021/07/05 02:56:01;;;;;;;26.40;5.40;;;;;;;21.94;100.00;98080.17;1609660;87;21037;-68
2021/07/05 02:58:29;;;;;;;7.50;5.40;;;;;;;21.96;100.00;98082.27;1609813;87;21472;-63
2021/07/05 03:00:59;;;;;;;8.30;5.22;;;;;;;21.99;100.00;98083.39;1609596;87;20993;-63
2021/07/05 03:03:27;;;;;;;11.55;4.87;;;;;;;22.00;100.00;98082.43;1611346;86;21156;-64
2021/07/05 03:05:55;;;;;;;9.95;5.08;;;;;;;22.00;100.00;98084.62;1609766;87;20922;-64
2021/07/05 03:08:24;;;;;;;6.08;5.40;;;;;;;22.00;100.00;98085.97;1609669;87;21014;-63
2021/07/05 03:10:54;;;;;;;5.92;5.28;;;;;;;22.02;100.00;98099.30;1609827;87;21449;-63
2021/07/05 03:13:22;;;;;;;6.15;5.55;;;;;;;22.02;100.00;98100.64;1611407;87;20994;-66
2021/07/05 03:15:51;;;;;;;8.05;6.15;;;;;;;22.03;100.00;98093.44;1609687;87;21457;-65
2021/07/05 03:18:20;;;;;;;7.03;5.55;;;;;;;22.02;100.00;98095.75;1660040;84;20902;-65
2021/07/05 03:20:50;;;;;;;7.67;6.28;;;;;;;22.01;100.00;98092.20;1631273;86;21034;-66
2021/07/05 03:23:19;;;;;;;8.43;6.83;;;;;;;22.00;100.00;98099.40;1612877;88;21462;-65
2021/07/05 03:25:47;;;;;;;8.48;5.95;;;;;;;22.02;100.00;98101.13;1615597;88;20941;-65
2021/07/05 03:28:17;;;;;;;8.30;5.90;;;;;;;22.03;100.00;98098.81;1622062;86;21968;-65
2021/07/05 03:30:48;;;;;;;7.65;5.58;;;;;;;22.04;100.00;98091.16;1613262;86;21040;-65
2021/07/05 03:33:17;;;;;;;7.00;5.72;;;;;;;22.05;100.00;98095.56;1654672;84;20894;-65
2021/07/05 03:35:45;;;;;;;6.15;5.28;;;;;;;22.02;100.00;98094.41;1609800;87;20990;-64
2021/07/05 03:38:13;;;;;;;7.40;5.10;;;;;;;22.01;100.00;98098.91;1609960;87;21092;-64
2021/07/05 03:40:42;;;;;;;7.53;5.08;;;;;;;22.05;100.00;98100.94;1609023;87;21477;-66
2021/07/05 03:43:10;;;;;;;8.90;5.80;;;;;;;22.07;100.00;98107.92;1630972;86;21509;-64
2021/07/05 03:45:39;;;;;;;6.37;5.78;;;;;;;22.09;100.00;98109.16;1635590;86;21542;-65
2021/07/05 03:48:07;;;;;;;8.10;5.40;;;;;;;22.10;100.00;98110.39;1635621;86;21005;-65
2021/07/05 03:50:36;;;;;;;8.55;4.87;;;;;;;22.13;100.00;98119.59;1609576;87;21517;-65
2021/07/05 03:53:04;;;;;;;5.55;5.05;;;;;;;22.17;100.00;98108.14;1609325;87;21118;-67
2021/07/05 03:55:34;;;;;;;8.50;5.83;;;;;;;22.18;100.00;98101.32;1608805;87;20922;-68
2021/07/05 03:58:03;;;;;;;6.55;5.45;;;;;;;22.20;100.00;98095.84;1609057;87;20961;-68
2021/07/05 04:00:35;;;;;;;10.90;5.50;;;;;;;22.19;100.00;98097.67;1627279;86;20966;-65
2021/07/05 04:03:04;;;;;;;8.15;5.10;;;;;;;22.21;100.00;98094.87;1635940;86;20974;-65
2021/07/05 04:05:32;;;;;;;7.83;5.37;;;;;;;22.22;100.00;98092.08;1635699;86;21122;-66
2021/07/05 04:08:00;;;;;;;5.92;5.33;;;;;;;22.23;100.00;98089.80;1636020;86;20922;-65
2021/07/05 04:10:30;;;;;;;7.90;5.78;;;;;;;22.25;100.00;98080.30;1633757;86;21481;-65
2021/07/05 04:12:59;;;;;;;5.87;5.30;;;;;;;22.26;100.00;98079.33;1636012;86;21441;-67
2021/07/05 04:15:28;;;;;;;7.20;5.50;;;;;;;22.25;100.00;98080.30;1635904;86;21466;-65
2021/07/05 04:17:56;;;;;;;7.53;5.33;;;;;;;22.25;100.00;98085.19;1626603;86;21155;-66
2021/07/05 04:20:24;;;;;;;6.70;5.75;;;;;;;22.25;100.00;98087.01;1609762;87;20942;-65
2021/07/05 04:22:52;;;;;;;6.10;5.50;;;;;;;22.30;100.00;98085.72;1609672;87;20982;-66
2021/07/05 04:25:21;;;;;;;10.63;6.62;;;;;;;22.37;100.00;98083.45;1609643;87;21462;-64
2021/07/05 04:27:49;;;;;;;7.50;6.20;;;;;;;22.42;100.00;98081.30;1587332;87;20991;-63
2021/07/05 04:30:19;;;;;;;6.40;5.50;;;;;;;22.46;100.00;98081.45;1609696;87;21114;-66
2021/07/05 04:32:49;;;;;;;8.95;5.83;;;;;;;22.47;100.00;98077.80;1609669;87;20918;-63
2021/07/05 04:35:19;;;;;;;6.58;5.65;;;;;;;22.51;100.00;98075.27;1609682;87;20941;-63
2021/07/05 04:37:48;;;;;;;8.00;5.67;;;;;;;22.57;100.00;98068.11;1609692;87;20982;-62
2021/07/05 04:40:23;;;;;;;7.42;5.90;;;;;;;22.63;100.00;98070.35;1602990;87;21040;-61
2021/07/05 04:42:51;;;;;;;6.50;5.90;;;;;;;22.66;100.00;98077.34;1600301;88;21119;-61
2021/07/05 04:45:20;;;;;;;8.70;5.75;;;;;;;22.72;100.00;98070.69;1600224;88;20886;-62
2021/07/05 04:47:50;;;;;;;6.28;5.55;;;;;;;22.78;100.00;98079.66;1603472;88;20935;-62
2021/07/05 04:50:17;;;;;;;7.05;5.58;;;;;;;22.81;100.00;98074.94;1626120;87;20994;-62
2021/07/05 04:52:45;;;;;;;7.95;6.00;;;;;;;22.85;100.00;98079.13;1626419;86;21054;-62
2021/07/05 04:55:15;;;;;;;11.83;6.50;;;;;;;22.89;100.00;98081.97;1608340;86;21117;-64
2021/07/05 04:57:43;;;;;;;7.62;6.03;;;;;;;22.92;100.00;98086.26;1626284;86;20891;-61
2021/07/05 05:00:15;;;;;;;8.25;5.90;;;;;;;22.96;100.00;98082.38;1625983;87;20938;-63
2021/07/05 05:02:42;;;;;;;6.67;5.87;;;;;;;23.02;100.00;98073.86;1626387;87;20968;-63
2021/07/05 05:05:11;;;;;;;9.40;6.30;;;;;;;23.09;100.00;98069.73;1622221;87;20994;-64
2021/07/05 05:07:39;;;;;;;7.78;6.55;;;;;;;23.14;100.00;98068.05;1600548;88;21108;-62
2021/07/05 05:10:09;;;;;;;7.45;5.92;;;;;;;23.16;100.00;98062.07;1600378;88;21465;-62
2021/07/05 05:12:37;;;;;;;8.15;5.83;;;;;;;23.19;100.00;98069.46;1600584;88;21449;-62
2021/07/05 05:15:06;;;;;;;8.93;5.75;;;;;;;23.27;100.00;98072.06;1619448;86;21347;-64
2021/07/05 05:17:34;;;;;;;7.25;6.12;;;;;;;23.33;100.00;98070.26;1612333;87;20974;-63
2021/07/05 05:20:06;;;;;;;10.60;6.33;;;;;;;23.39;100.00;98072.00;1600242;88;20970;-65
2021/07/05 05:22:34;;;;;;;7.20;6.50;;;;;;;23.44;100.00;98076.55;1600203;88;21441;-64
2021/07/05 05:25:01;;;;;;;7.37;6.53;;;;;;;23.48;100.00;98076.69;1601986;88;20906;-65
2021/07/05 05:27:29;;;;;;;9.43;6.85;;;;;;;23.52;100.00;98080.00;1600301;88;20887;-64
2021/07/05 05:29:56;;;;;;;6.72;5.65;;;;;;;23.57;100.00;98076.51;1600563;88;20946;-67
2021/07/05 05:32:26;;;;;;;8.58;6.12;;;;;;;23.63;100.00;98072.00;1600221;88;21063;-67
2021/07/05 05:34:54;;;;;;;8.58;6.55;;;;;;;23.67;100.00;98072.17;1619161;86;21457;-66
2021/07/05 05:37:22;;;;;;;9.10;6.65;;;;;;;23.73;100.00;98068.15;1626038;87;20978;-66
2021/07/05 05:39:49;;;;;;;7.62;6.28;;;;;;;23.79;100.00;98082.00;1631573;86;20981;-63
2021/07/05 05:42:16;;;;;;;8.68;6.60;;;;;;;23.87;100.00;98073.33;1635777;86;20970;-63
2021/07/05 05:44:45;;;;;;;10.88;6.53;;;;;;;23.96;100.00;98074.45;1621525;86;21814;-63
2021/07/05 05:47:13;;;;;;;9.73;6.90;;;;;;;24.03;100.00;98066.27;1618121;84;20952;-63
2021/07/05 05:49:41;;;;;;;8.05;6.33;;;;;;;24.08;100.00;98061.38;1653040;84;20962;-63
2021/07/05 05:52:08;;;;;;;7.78;6.83;;;;;;;24.10;100.00;98061.62;1664174;84;21013;-63
2021/07/05 05:54:36;;;;;;;11.53;6.80;;;;;;;24.13;100.00;98064.59;1658242;84;20922;-63
2021/07/05 05:57:04;;;;;;;7.85;6.05;;;;;;;24.15;100.00;98064.84;1659029;84;21142;-62
2021/07/05 05:59:33;;;;;;;7.05;6.30;;;;;;;24.20;100.00;98063.63;1657046;84;20973;-63
2021/07/05 06:02:00;;;;;;;7.62;6.33;;;;;;;24.24;100.00;98069.14;1664124;85;20946;-63
2021/07/05 06:04:28;;;;;;;11.53;7.25;;;;;;;24.27;100.00;98065.75;1663676;84;20962;-63
2021/07/05 06:06:58;;;;;;;8.23;7.00;;;;;;;24.31;100.00;98067.22;1625915;86;21460;-63
2021/07/05 06:09:26;;;;;;;7.42;6.53;;;;;;;24.35;100.00;98067.84;1613888;87;21122;-64
2021/07/05 06:11:54;;;;;;;8.60;6.15;;;;;;;24.37;100.00;98068.08;1613750;87;20958;-63
2021/07/05 06:14:22;;;;;;;7.72;5.90;;;;;;;24.42;100.00;98064.53;1618718;86;22057;-62
2021/07/05 06:16:51;;;;;;;12.47;6.95;;;;;;;24.46;100.00;98069.19;1660122;85;20965;-63
2021/07/05 06:19:20;;;;;;;7.80;6.72;;;;;;;24.52;100.00;98067.84;1623873;86;21441;-62
2021/07/05 06:21:48;;;;;;;7.80;6.85;;;;;;;24.54;100.00;98066.73;1663936;84;21098;-63
2021/07/05 06:24:16;;;;;;;9.28;6.75;;;;;;;24.59;100.00;98069.06;1662103;84;20933;-62
2021/07/05 06:26:43;;;;;;;7.75;6.28;;;;;;;24.63;100.00;98067.38;1657849;84;20970;-63
2021/07/05 06:29:11;;;;;;;10.95;6.83;;;;;;;24.68;100.00;98068.35;1662393;84;20919;-62
2021/07/05 06:31:38;;;;;;;9.95;6.35;;;;;;;24.73;100.00;98066.14;1662941;85;21464;-62
2021/07/05 06:34:06;;;;;;;11.35;6.90;;;;;;;24.75;100.00;98073.61;1662730;85;21061;-62
2021/07/05 06:36:35;;;;;;;10.28;6.65;;;;;;;24.78;100.00;98074.22;1641927;85;20891;-62
2021/07/05 06:39:03;;;;;;;11.75;6.75;;;;;;;24.82;100.00;98072.13;1635463;86;21501;-64
2021/07/05 06:41:31;;;;;;;11.93;6.45;;;;;;;24.88;100.00;98074.33;1635748;86;21469;-63
2021/07/05 06:43:58;;;;;;;7.35;6.47;;;;;;;24.97;100.00;98073.58;1635778;86;20906;-63
2021/07/05 06:46:26;;;;;;;8.83;6.90;;;;;;;25.07;100.00;98073.75;1633883;86;21107;-63
2021/07/05 06:48:55;;;;;;;8.08;6.45;;;;;;;25.18;100.00;98062.06;1647398;85;21045;-63
2021/07/05 06:51:22;;;;;;;9.35;6.22;;;;;;;25.34;100.00;98068.77;1622291;86;21041;-63
2021/07/05 06:53:50;;;;;;;9.23;5.90;;;;;;;25.50;100.00;98068.33;1660662;85;20995;-63
2021/07/05 06:56:20;;;;;;;8.53;5.90;;;;;;;25.68;100.00;98068.69;1663689;84;21506;-63
2021/07/05 06:58:48;;;;;;;8.55;6.55;;;;;;;25.87;100.00;98074.72;1659250;84;21551;-63
2021/07/05 07:01:15;;;;;;;7.25;6.03;;;;;;;26.02;100.00;98072.09;1652869;85;20970;-63
2021/07/05 07:03:43;;;;;;;16.67;6.78;;;;;;;26.15;100.00;98064.63;1649818;84;21504;-63
2021/07/05 07:06:11;;;;;;;7.35;5.90;;;;;;;26.26;100.00;98064.55;1660374;84;21495;-63
2021/07/05 07:08:39;;;;;;;6.78;6.08;;;;;;;26.39;100.00;98054.91;1631663;86;21016;-64
2021/07/05 07:11:06;;;;;;;10.68;6.60;;;;;;;26.52;100.00;98060.11;1664074;85;21089;-64
2021/07/05 07:13:34;;;;;;;10.18;6.70;;;;;;;26.63;100.00;98059.52;1663847;85;21421;-63
2021/07/05 07:16:04;;;;;;;8.63;6.25;;;;;;;26.73;100.00;98058.70;1664295;84;20922;-63
2021/07/05 07:21:21;;;;;;;9.70;5.83;;;;;;;26.88;100.00;98064.09;1662705;84;21454;-63
2021/07/05 07:23:48;;;;;;;6.87;5.42;;;;;;;26.97;100.00;98058.73;1663987;84;21099;-63
2021/07/05 07:26:16;;;;;;;8.88;6.22;;;;;;;27.04;100.00;98059.56;1664218;85;20918;-63
2021/07/05 07:28:43;;;;;;;8.75;5.65;;;;;;;27.04;100.00;98056.36;1663775;84;20930;-64
2021/07/05 07:31:11;;;;;;;6.97;6.00;;;;;;;27.03;100.00;98061.91;1662585;84;21493;-64
2021/07/05 07:33:38;;;;;;;7.45;6.28;;;;;;;27.00;100.00;98064.89;1654462;85;20994;-63
2021/07/05 07:36:09;;;;;;;7.12;6.17;;;;;;;26.94;100.00;98052.21;1658230;84;20973;-63
2021/07/05 07:38:42;;;;;;;8.70;6.90;;;;;;;26.89;100.00;98061.24;1665613;84;20921;-66
2021/07/05 07:41:06;;;;;;;6.90;5.42;;;;;;;26.85;100.00;98061.66;1647189;85;20929;-62
2021/07/05 07:43:35;;;;;;;7.37;5.62;;;;;;;26.81;100.00;98062.43;1638030;85;21522;-63
2021/07/05 07:46:03;;;;;;;6.70;5.55;;;;;;;26.82;100.00;98063.28;1621148;87;21049;-63
2021/07/05 07:48:31;;;;;;;6.50;5.72;;;;;;;26.84;100.00;98070.77;1621828;87;21138;-63
2021/07/05 07:51:00;;;;;;;7.10;5.87;;;;;;;26.83;100.00;98071.27;1620657;87;20963;-63
2021/07/05 07:53:27;;;;;;;9.48;6.20;;;;;;;26.89;100.00;98072.56;1620627;87;21390;-63
2021/07/05 07:55:55;;;;;;;6.17;5.62;;;;;;;26.97;100.00;98073.62;1620375;87;20915;-62
2021/07/05 07:58:22;;;;;;;9.88;6.10;;;;;;;27.10;100.00;98076.59;1619172;87;21369;-62
2021/07/05 08:00:50;;;;;;;7.50;6.15;;;;;;;27.22;100.00;98065.52;1614327;87;21777;-62
2021/07/05 08:03:17;;;;;;;8.78;5.80;;;;;;;27.37;100.00;98059.69;1611313;87;20951;-63
2021/07/05 08:05:46;;;;;;;8.35;6.12;;;;;;;27.49;100.00;98062.64;1619692;87;20907;-64
2021/07/05 08:08:16;;;;;;;10.93;6.33;;;;;;;27.60;100.00;98062.50;1607054;87;21453;-65
2021/07/05 08:10:44;;;;;;;8.85;5.95;;;;;;;27.71;100.00;98068.31;1600068;87;20922;-63
2021/07/05 08:13:12;;;;;;;9.28;5.90;;;;;;;27.79;100.00;98061.17;1621828;87;21102;-64
2021/07/05 08:15:40;;;;;;;7.30;5.75;;;;;;;27.84;100.00;98053.97;1620923;87;20947;-65
2021/07/05 08:18:08;;;;;;;6.12;5.47;;;;;;;27.86;100.00;98052.82;1535408;90;21456;-64
2021/07/05 08:20:35;;;;;;;9.53;5.53;;;;;;;27.88;100.00;98048.11;1598087;88;21541;-62
2021/07/05 08:23:03;;;;;;;7.65;5.92;;;;;;;27.92;100.00;98051.42;1618008;88;20966;-62
2021/07/05 08:25:31;;;;;;;6.92;5.15;;;;;;;27.96;100.00;98046.06;1621693;87;21105;-67
2021/07/05 08:27:59;;;;;;;8.30;5.10;;;;;;;28.03;100.00;98051.26;1607354;87;20892;-67
2021/07/05 08:30:27;;;;;;;9.20;5.15;;;;;;;28.13;100.00;98051.23;1621679;87;20959;-66
2021/07/05 08:32:55;;;;;;;10.58;4.75;;;;;;;28.24;100.00;98052.45;1607019;87;20915;-67
2021/07/05 08:35:22;;;;;;;9.08;4.92;;;;;;;28.29;100.00;98050.16;1598806;87;20931;-67
2021/07/05 08:37:51;;;;;;;10.58;5.67;;;;;;;28.33;100.00;98050.21;1599731;88;21108;-66
2021/07/05 08:40:18;;;;;;;9.10;4.87;;;;;;;28.35;100.00;98050.06;1555805;90;20973;-66
2021/07/05 08:42:46;;;;;;;7.53;4.90;;;;;;;28.37;100.00;98048.06;1557991;90;20950;-67
2021/07/05 08:45:14;;;;;;;6.22;4.90;;;;;;;28.39;100.00;98043.38;1557592;90;20946;-67
2021/07/05 08:47:43;;;;;;;6.92;5.10;;;;;;;28.42;100.00;98045.79;1601239;87;21484;-67
2021/07/05 08:50:12;;;;;;;9.13;5.22;;;;;;;28.40;100.00;98046.44;1607488;87;21126;-67
2021/07/05 08:52:43;;;;;;;8.33;5.10;;;;;;;28.38;100.00;98043.88;1596411;88;21525;-68
2021/07/05 08:55:13;;;;;;;7.22;5.30;;;;;;;28.41;100.00;98041.37;1546799;90;20965;-67
2021/07/05 08:57:43;;;;;;;6.12;4.65;;;;;;;28.45;100.00;98041.42;1590676;88;20978;-68
2021/07/05 09:00:15;;;;;;;13.22;5.03;;;;;;;28.48;100.00;98046.05;1600009;87;21525;-67
2021/07/05 09:02:42;;;;;;;15.88;4.00;;;;;;;28.51;100.00;98040.33;1612285;87;21953;-67
2021/07/05 09:05:09;;;;;;;8.30;4.33;;;;;;;28.56;100.00;98034.95;1607244;87;20986;-67
2021/07/05 09:08:04;;;;;;;8.95;4.30;;;;;;;28.59;100.00;98038.73;1597303;88;21084;-67
2021/07/05 09:10:54;;;;;;;5.25;3.90;;;;;;;28.64;100.00;98047.27;1605977;87;20887;-67
2021/07/05 09:13:23;;;;;;;6.37;3.90;;;;;;;28.67;100.00;98034.26;1597335;88;20903;-66
2021/07/05 09:15:59;;;;;;;6.72;3.95;;;;;;;28.66;100.00;98031.19;1606670;88;21109;-66
2021/07/05 09:18:43;;;;;;;8.20;4.03;;;;;;;28.64;100.00;98029.13;1603079;88;47249;-67
2021/07/05 09:21:27;;;;;;;10.60;4.17;;;;;;;28.57;100.00;98033.45;1621938;87;21453;-67
2021/07/05 09:24:04;;;;;;;9.75;4.05;;;;;;;28.53;100.00;98040.17;1621883;87;21526;-66
2021/07/05 09:26:45;;;;;;;7.37;4.10;;;;;;;28.53;100.00;98039.67;1613504;87;20978;-66
2021/07/05 09:29:20;;;;;;;9.97;4.13;;;;;;;28.57;100.00;98042.95;1539533;91;21100;-66
2021/07/05 09:31:54;;;;;;;9.68;4.45;;;;;;;28.59;100.00;98039.58;1600317;87;20959;-67
2021/07/05 09:34:31;;;;;;;13.22;4.90;;;;;;;28.60;100.00;98042.64;1621585;87;20920;-67
2021/07/05 09:37:19;;;;;;;8.95;4.70;;;;;;;28.61;100.00;98039.43;1621449;88;21494;-67
2021/07/05 09:39:44;;;;;;;7.78;4.08;;;;;;;28.65;100.00;98033.55;1621768;87;21395;-65
2021/07/05 09:42:14;;;;;;;9.58;4.33;;;;;;;28.78;100.00;98029.13;1616757;87;21202;-67
2021/07/05 09:44:46;;;;;;;18.98;4.92;;;;;;;28.92;100.00;98033.27;1621401;86;20903;-67
2021/07/05 09:47:18;;;;;;;8.10;4.33;;;;;;;29.05;100.00;98028.33;1607923;88;20934;-66
2021/07/05 09:49:47;;;;;;;10.40;4.30;;;;;;;29.17;100.00;98022.17;1607910;88;20902;-67
2021/07/05 09:52:25;;;;;;;15.80;4.95;;;;;;;29.30;100.00;98028.08;1607474;89;20907;-69
2021/07/05 09:54:57;;;;;;;10.58;4.50;;;;;;;29.38;100.00;98024.12;1607406;87;21136;-66
2021/07/05 09:57:35;;;;;;;5.60;3.67;;;;;;;29.43;100.00;98025.39;1608084;87;20970;-66
2021/07/05 10:00:12;;;;;;;8.38;4.78;;;;;;;29.49;100.00;98023.91;1607112;87;20918;-66
2021/07/05 10:03:04;;;;;;;7.62;4.37;;;;;;;29.60;100.00;98020.95;1607794;87;21015;-68
2021/07/05 10:05:34;;;;;;;11.48;4.50;;;;;;;29.73;100.00;98024.12;1644704;85;20942;-70
2021/07/05 10:08:09;;;;;;;6.65;4.00;;;;;;;29.88;100.00;98023.09;1661873;85;21081;-70
2021/07/05 10:10:39;;;;;;;7.95;3.92;;;;;;;29.96;100.00;98011.41;1656357;85;21513;-69
2021/07/05 10:13:14;;;;;;;16.57;4.60;;;;;;;30.04;100.00;98009.64;1639624;86;20982;-68
2021/07/05 10:15:43;;;;;;;10.35;4.87;;;;;;;30.11;100.00;98011.22;1654734;85;21528;-69
2021/07/05 10:18:11;;;;;;;11.28;4.00;;;;;;;30.17;100.00;98014.66;1662097;84;21009;-68
2021/07/05 10:20:44;;;;;;;10.40;4.10;;;;;;;30.21;100.00;98009.23;1653920;85;21073;-69
2021/07/05 10:23:15;;;;;;;8.68;4.25;;;;;;;30.21;100.00;98009.74;1661851;85;21591;-68
2021/07/05 10:25:49;;;;;;;10.45;4.08;;;;;;;30.17;100.00;98016.02;1655224;85;21531;-69
2021/07/05 10:28:17;;;;;;;7.20;4.10;;;;;;;30.14;100.00;98009.53;1658931;84;20882;-68
2021/07/05 10:30:45;;;;;;;5.47;4.17;;;;;;;30.15;100.00;98004.44;1661837;85;20980;-69
2021/07/05 10:33:14;;;;;;;8.78;4.20;;;;;;;30.17;100.00;98007.85;1662091;85;21777;-69
2021/07/05 10:35:45;;;;;;;6.83;4.85;;;;;;;30.19;100.00;98008.55;1654666;85;21040;-69
2021/07/05 10:38:51;;;;;;;8.10;4.17;;;;;;;30.14;100.00;98001.88;1662262;84;20998;-70
2021/07/05 10:41:20;;;;;;;5.30;3.83;;;;;;;30.14;100.00;97997.30;1662596;84;20962;-68
2021/07/05 10:43:57;;;;;;;8.75;4.87;;;;;;;30.16;100.00;97999.34;1662973;85;21430;-68
2021/07/05 10:46:49;;;;;;;7.62;4.33;;;;;;;30.20;100.00;97995.80;1662855;85;21821;-68
2021/07/05 10:49:35;;;;;;;5.83;4.30;;;;;;;30.23;100.00;97996.83;1662793;85;20906;-68
2021/07/05 10:52:05;;;;;;;6.67;4.03;;;;;;;30.26;100.00;98000.59;1662869;85;21422;-68
2021/07/05 10:54:55;;;;;;;11.70;4.70;;;;;;;30.29;100.00;97982.63;1662800;85;20943;-68
2021/07/05 10:57:34;;;;;;;24.92;5.00;;;;;;;30.29;100.00;97990.78;1620446;86;21031;-68
2021/07/05 11:00:08;;;;;;;22.30;5.85;;;;;;;30.22;100.00;98001.93;1638387;86;21246;-67
2021/07/05 11:02:46;;;;;;;7.65;4.80;;;;;;;30.06;100.00;98008.12;1654806;85;20982;-68
2021/07/05 11:05:42;;;;;;;5.47;4.60;;;;;;;29.87;100.00;98014.58;1635852;86;21076;-67
2021/07/05 11:08:30;;;;;;;6.55;4.75;;;;;;;29.67;100.00;98014.39;1636046;86;21011;-67
2021/07/05 11:11:28;;;;;;;9.25;4.78;;;;;;;29.45;100.00;98008.43;1635810;86;21509;-67
2021/07/05 11:14:32;;;;;;;9.20;5.37;;;;;;;29.28;100.00;98002.94;1630391;86;21481;-68
2021/07/05 11:17:22;;;;;;;10.80;4.35;;;;;;;29.08;100.00;98007.16;1609698;88;20925;-68
2021/07/05 11:20:10;;;;;;;5.28;4.05;;;;;;;28.94;100.00;98013.61;1610068;87;20970;-68
2021/07/05 11:22:39;;;;;;;7.90;3.75;;;;;;;28.80;100.00;98008.98;1609727;87;20958;-67
2021/07/05 11:25:22;;;;;;;5.08;3.60;;;;;;;28.69;100.00;98010.54;1609993;87;21460;-68
2021/07/05 11:27:54;;;;;;;8.10;4.20;;;;;;;28.59;100.00;98021.09;1609755;87;21142;-67
2021/07/05 11:30:39;;;;;;;6.33;3.98;;;;;;;28.48;100.00;98018.06;1609923;87;20898;-67
2021/07/05 11:33:13;;;;;;;7.05;3.95;;;;;;;28.40;100.00;98012.53;1609793;87;21457;-67
2021/07/05 11:35:48;;;;;;;6.28;3.70;;;;;;;28.35;100.00;98021.09;1609938;87;21449;-67
2021/07/05 11:38:37;;;;;;;6.97;4.12;;;;;;;28.29;100.00;98025.75;1609760;88;21655;-67
2021/07/05 11:41:16;;;;;;;4.83;3.50;;;;;;;28.22;100.00;98023.24;1609809;87;21102;-68
2021/07/05 11:44:03;;;;;;;11.53;4.90;;;;;;;28.14;100.00;98019.91;1609633;87;20926;-67